createdAt,value
2017-12-11T00:01:04.722Z,5.40
2017-12-11T00:03:32.886Z,5.50
2017-12-11T00:06:01.140Z,5.50
2017-12-11T00:08:29.290Z,5.50
2017-12-11T00:10:57.573Z,5.50
2017-12-11T00:13:26.520Z,5.40
2017-12-11T00:16:15.229Z,5.40
2017-12-11T00:18:43.381Z,5.40
2017-12-11T00:21:11.539Z,5.40
2017-12-11T00:23:39.700Z,5.40
2017-12-11T00:26:11.742Z,5.30
2017-12-11T00:28:39.894Z,5.30
2017-12-11T00:31:08.077Z,5.30
2017-12-11T00:33:36.226Z,5.30
2017-12-11T00:36:04.437Z,5.30
2017-12-11T00:38:32.588Z,5.30
2017-12-11T00:41:00.742Z,5.20
2017-12-11T00:43:28.892Z,5.20
2017-12-11T00:45:57.052Z,5.10
2017-12-11T00:48:25.213Z,5.10
2017-12-11T00:50:53.367Z,5.10
2017-12-11T00:53:22.286Z,5.00
2017-12-11T00:55:50.449Z,5.00
2017-12-11T00:58:18.597Z,5.00
2017-12-11T01:00:46.737Z,4.90
2017-12-11T01:03:14.890Z,4.90
2017-12-11T01:05:43.044Z,4.90
2017-12-11T01:08:11.196Z,4.90
2017-12-11T01:10:39.346Z,4.90
2017-12-11T01:13:07.500Z,5.00
2017-12-11T01:15:35.643Z,5.00
2017-12-11T01:18:03.789Z,5.00
2017-12-11T01:20:32.725Z,5.00
2017-12-11T01:23:00.887Z,5.00
2017-12-11T01:25:29.094Z,5.00
2017-12-11T01:27:57.236Z,4.90
2017-12-11T01:30:25.395Z,5.00
2017-12-11T01:32:53.912Z,4.90
2017-12-11T01:35:22.060Z,5.00
2017-12-11T01:37:50.319Z,5.10
2017-12-11T01:40:18.470Z,5.00
2017-12-11T01:42:46.626Z,5.00
2017-12-11T01:45:14.771Z,5.00
2017-12-11T01:47:43.729Z,5.00
2017-12-11T01:50:12.648Z,5.00
2017-12-11T01:52:40.801Z,5.00
2017-12-11T01:55:08.943Z,5.00
2017-12-11T01:57:37.533Z,5.00
2017-12-11T02:00:05.677Z,5.00
2017-12-11T02:02:33.820Z,5.00
2017-12-11T02:05:01.960Z,5.00
2017-12-11T02:07:30.250Z,5.00
2017-12-11T02:09:58.409Z,5.00
2017-12-11T02:12:27.336Z,4.80
2017-12-11T02:14:55.481Z,4.80
2017-12-11T02:17:23.762Z,4.70
2017-12-11T02:19:51.894Z,4.60
2017-12-11T02:22:20.046Z,4.30
2017-12-11T02:24:48.197Z,4.10
2017-12-11T02:27:16.471Z,4.10
2017-12-11T02:29:44.621Z,4.00
2017-12-11T02:32:13.047Z,4.00
2017-12-11T02:34:41.191Z,4.00
2017-12-11T02:37:10.181Z,4.00
2017-12-11T02:39:38.335Z,4.00
2017-12-11T02:42:06.486Z,4.10
2017-12-11T02:44:34.632Z,4.20
2017-12-11T02:47:02.875Z,4.20
2017-12-11T02:49:31.025Z,4.20
2017-12-11T02:51:59.190Z,4.20
2017-12-11T02:54:27.326Z,4.20
2017-12-11T02:56:56.606Z,4.20
2017-12-11T02:59:24.765Z,4.10
2017-12-11T03:01:53.690Z,3.90
2017-12-11T03:04:21.863Z,3.90
2017-12-11T03:06:50.143Z,3.90
2017-12-11T03:09:18.285Z,3.80
2017-12-11T03:11:47.212Z,3.90
2017-12-11T03:14:15.378Z,3.90
2017-12-11T03:16:43.638Z,4.00
2017-12-11T03:19:11.868Z,4.10
2017-12-11T03:21:40.007Z,4.20
2017-12-11T03:24:08.175Z,4.20
2017-12-11T03:26:36.330Z,4.30
2017-12-11T03:29:05.245Z,4.30
2017-12-11T03:31:33.390Z,4.30
2017-12-11T03:34:02.309Z,4.40
2017-12-11T03:36:30.454Z,4.40
2017-12-11T03:38:59.366Z,4.50
2017-12-11T03:41:27.509Z,4.50
2017-12-11T03:43:56.675Z,4.60
2017-12-11T03:46:24.829Z,4.60
2017-12-11T03:48:52.979Z,4.60
2017-12-11T03:51:21.124Z,4.60
2017-12-11T03:53:49.284Z,4.50
2017-12-11T03:56:17.479Z,4.40
2017-12-11T03:58:45.641Z,4.50
2017-12-11T04:01:13.794Z,4.30
2017-12-11T04:03:41.998Z,4.10
2017-12-11T04:06:10.184Z,4.20
2017-12-11T04:08:38.340Z,4.20
2017-12-11T04:11:06.499Z,4.30
2017-12-11T04:13:34.661Z,4.30
2017-12-11T04:16:02.903Z,4.30
2017-12-11T04:18:31.076Z,4.30
2017-12-11T04:20:59.228Z,4.10
2017-12-11T04:23:27.387Z,4.10
2017-12-11T04:25:55.584Z,4.00
2017-12-11T04:28:24.490Z,3.90
2017-12-11T04:30:52.671Z,3.90
2017-12-11T04:33:20.806Z,4.00
2017-12-11T04:35:49.953Z,4.00
2017-12-11T04:38:18.125Z,4.00
2017-12-11T04:40:47.049Z,4.20
2017-12-11T04:43:15.210Z,4.20
2017-12-11T04:45:43.353Z,4.20
2017-12-11T04:48:11.506Z,4.30
2017-12-11T04:50:39.665Z,4.30
2017-12-11T04:53:07.806Z,4.30
2017-12-11T04:55:35.954Z,4.20
2017-12-11T04:58:04.102Z,4.20
2017-12-11T05:00:32.261Z,4.30
2017-12-11T05:03:00.423Z,4.30
2017-12-11T05:05:28.578Z,4.30
2017-12-11T05:07:56.732Z,4.30
2017-12-11T05:10:24.890Z,4.40
2017-12-11T05:12:53.039Z,4.30
2017-12-11T05:15:21.945Z,4.40
2017-12-11T05:17:50.210Z,4.40
2017-12-11T05:20:18.345Z,4.40
2017-12-11T05:22:46.512Z,4.30
2017-12-11T05:25:14.987Z,4.30
2017-12-11T05:27:43.138Z,4.30
2017-12-11T05:30:11.334Z,4.30
2017-12-11T05:32:39.772Z,4.30
2017-12-11T05:35:07.929Z,4.30
2017-12-11T05:37:36.929Z,4.30
2017-12-11T05:40:05.848Z,4.50
2017-12-11T05:42:34.003Z,4.50
2017-12-11T05:45:02.165Z,4.50
2017-12-11T05:47:30.751Z,4.50
2017-12-11T05:49:58.913Z,4.60
2017-12-11T05:52:27.850Z,4.60
2017-12-11T05:54:56.009Z,4.60
2017-12-11T05:57:25.057Z,4.60
2017-12-11T05:59:53.209Z,4.50
2017-12-11T06:02:21.361Z,4.50
2017-12-11T06:04:49.510Z,4.50
2017-12-11T06:07:17.809Z,4.50
2017-12-11T06:09:45.968Z,4.50
2017-12-11T06:12:14.126Z,4.50
2017-12-11T06:14:44.745Z,4.50
2017-12-11T06:17:13.567Z,4.50
2017-12-11T06:19:41.696Z,4.50
2017-12-11T06:22:10.986Z,4.60
2017-12-11T06:24:39.155Z,4.50
2017-12-11T06:27:07.293Z,4.60
2017-12-11T06:29:35.443Z,4.60
2017-12-11T06:32:04.360Z,4.70
2017-12-11T06:34:32.509Z,4.70
2017-12-11T06:37:00.796Z,4.60
2017-12-11T06:39:28.946Z,4.60
2017-12-11T06:41:57.849Z,4.50
2017-12-11T06:44:26.765Z,4.40
2017-12-11T06:47:01.022Z,4.40
2017-12-11T06:49:29.190Z,4.40
2017-12-11T06:51:57.416Z,4.50
2017-12-11T06:54:25.557Z,4.50
2017-12-11T06:56:53.778Z,4.60
2017-12-11T06:59:21.937Z,4.60
2017-12-11T07:01:50.845Z,4.50
2017-12-11T07:04:19.011Z,4.50
2017-12-11T07:06:47.312Z,4.50
2017-12-11T07:09:15.802Z,4.50
2017-12-11T07:11:43.962Z,4.50
2017-12-11T07:14:12.117Z,4.50
2017-12-11T07:16:40.372Z,4.60
2017-12-11T07:19:08.531Z,4.60
2017-12-11T07:21:36.683Z,4.60
2017-12-11T07:24:04.837Z,4.50
2017-12-11T07:26:33.098Z,4.60
2017-12-11T07:29:01.239Z,4.60
2017-12-11T07:31:30.146Z,4.60
2017-12-11T07:33:58.292Z,4.60
2017-12-11T07:36:26.453Z,4.60
2017-12-11T07:38:55.332Z,4.50
2017-12-11T07:41:23.477Z,4.60
2017-12-11T07:43:51.639Z,4.60
2017-12-11T07:46:19.901Z,4.70
2017-12-11T07:48:48.075Z,4.70
2017-12-11T07:51:16.233Z,4.70
2017-12-11T07:53:44.388Z,4.70
2017-12-11T07:56:14.677Z,4.80
2017-12-11T07:58:42.849Z,4.80
2017-12-11T08:01:11.388Z,4.80
2017-12-11T08:03:39.543Z,4.90
2017-12-11T08:06:14.765Z,4.90
2017-12-11T08:08:43.812Z,4.90
2017-12-11T08:11:11.961Z,5.10
2017-12-11T08:13:40.102Z,5.10
2017-12-11T08:16:09.281Z,5.20
2017-12-11T08:18:37.437Z,5.20
2017-12-11T08:21:05.612Z,5.30
2017-12-11T08:23:33.774Z,5.40
2017-12-11T08:26:02.778Z,5.50
2017-12-11T08:28:30.952Z,5.50
2017-12-11T08:30:59.110Z,5.60
2017-12-11T08:33:27.274Z,5.60
2017-12-11T08:35:55.477Z,5.60
2017-12-11T08:38:23.646Z,5.70
2017-12-11T08:40:51.848Z,5.70
2017-12-11T08:43:20.016Z,6.00
2017-12-11T08:45:48.165Z,5.80
2017-12-11T08:48:16.330Z,5.80
2017-12-11T08:50:45.245Z,5.70
2017-12-11T08:53:14.159Z,5.70
2017-12-11T08:55:42.328Z,5.70
2017-12-11T08:58:10.502Z,5.70
2017-12-11T09:00:38.675Z,5.70
2017-12-11T09:03:06.836Z,5.70
2017-12-11T09:05:34.982Z,5.80
2017-12-11T09:08:03.115Z,5.70
2017-12-11T09:10:31.263Z,5.70
2017-12-11T09:12:59.417Z,5.60
2017-12-11T09:15:27.575Z,5.50
2017-12-11T09:17:56.517Z,5.60
2017-12-11T09:20:25.437Z,5.60
2017-12-11T09:22:53.623Z,5.60
2017-12-11T09:25:22.565Z,5.80
2017-12-11T09:27:50.713Z,5.80
2017-12-11T09:30:18.865Z,5.80
2017-12-11T09:32:47.021Z,5.90
2017-12-11T09:35:15.186Z,5.90
2017-12-11T09:37:43.422Z,6.00
2017-12-11T09:40:11.565Z,6.00
2017-12-11T09:42:40.510Z,6.10
2017-12-11T09:45:08.669Z,6.10
2017-12-11T09:47:36.942Z,6.20
2017-12-11T09:50:05.097Z,6.30
2017-12-11T09:52:34.007Z,6.60
2017-12-11T09:55:02.185Z,6.60
2017-12-11T09:57:30.445Z,6.80
2017-12-11T09:59:58.599Z,7.10
2017-12-11T10:02:27.524Z,7.50
2017-12-11T10:04:55.673Z,7.50
2017-12-11T10:07:23.970Z,7.60
2017-12-11T10:09:52.121Z,7.70
2017-12-11T10:12:20.264Z,7.90
2017-12-11T10:14:48.439Z,8.10
2017-12-11T10:17:19.939Z,8.20
2017-12-11T10:19:48.085Z,8.30
2017-12-11T10:22:17.004Z,8.40
2017-12-11T10:24:45.178Z,8.40
2017-12-11T10:27:14.485Z,8.40
2017-12-11T10:29:42.630Z,8.30
2017-12-11T10:32:11.765Z,8.30
2017-12-11T10:34:39.919Z,8.30
2017-12-11T10:37:08.210Z,8.20
2017-12-11T10:39:36.365Z,8.20
2017-12-11T10:42:04.542Z,8.10
2017-12-11T10:44:32.713Z,8.10
2017-12-11T10:47:01.925Z,8.10
2017-12-11T10:49:30.083Z,8.10
2017-12-11T10:51:58.222Z,8.10
2017-12-11T10:54:26.370Z,8.10
2017-12-11T10:56:59.577Z,8.20
2017-12-11T11:02:56.302Z,8.10
2017-12-11T11:05:24.460Z,7.80
2017-12-11T11:07:52.619Z,7.60
2017-12-11T11:10:20.790Z,7.70
2017-12-11T11:12:49.731Z,7.70
2017-12-11T11:15:18.348Z,7.70
2017-12-11T11:17:46.559Z,7.70
2017-12-11T11:20:15.486Z,7.70
2017-12-11T11:22:43.645Z,7.80
2017-12-11T11:25:11.797Z,7.80
2017-12-11T11:27:40.080Z,7.90
2017-12-11T11:30:08.236Z,8.00
2017-12-11T11:32:37.146Z,8.20
2017-12-11T11:35:05.303Z,8.10
2017-12-11T11:37:34.228Z,8.20
2017-12-11T11:40:02.389Z,8.20
2017-12-11T11:42:30.550Z,8.20
2017-12-11T11:44:58.706Z,8.10
2017-12-11T11:47:28.789Z,8.20
2017-12-11T11:49:56.933Z,8.20
2017-12-11T11:52:26.783Z,8.00
2017-12-11T11:54:58.600Z,7.70
2017-12-11T11:57:28.230Z,7.50
2017-12-11T11:59:57.046Z,7.40
2017-12-11T12:02:25.833Z,7.40
2017-12-11T12:04:54.329Z,7.30
2017-12-11T12:07:26.768Z,7.20
2017-12-11T12:09:56.321Z,7.10
2017-12-11T12:12:24.817Z,7.00
2017-12-11T12:14:53.457Z,7.00
2017-12-11T12:17:23.241Z,7.10
2017-12-11T12:19:52.372Z,7.20
2017-12-11T12:22:20.525Z,7.40
2017-12-11T12:24:51.126Z,7.40
2017-12-11T12:27:19.420Z,7.50
2017-12-11T12:29:47.874Z,7.50
2017-12-11T12:32:17.806Z,7.60
2017-12-11T12:34:45.952Z,7.60
2017-12-11T12:37:14.946Z,7.50
2017-12-11T12:39:43.099Z,7.50
2017-12-11T12:42:11.260Z,7.60
2017-12-11T12:44:39.406Z,7.80
2017-12-11T12:47:07.642Z,7.80
2017-12-11T12:49:35.775Z,7.90
2017-12-11T12:52:03.926Z,7.90
2017-12-11T12:54:32.064Z,8.00
2017-12-11T12:57:00.346Z,8.10
2017-12-11T12:59:29.260Z,8.20
2017-12-11T13:01:57.406Z,8.20
2017-12-11T13:04:25.545Z,8.30
2017-12-11T13:06:53.690Z,8.10
2017-12-11T13:09:21.836Z,7.80
2017-12-11T13:11:50.591Z,7.70
2017-12-11T13:14:18.772Z,7.80
2017-12-11T13:17:01.115Z,8.00
2017-12-11T13:19:29.290Z,8.00
2017-12-11T13:21:59.494Z,8.00
2017-12-11T13:24:28.501Z,8.00
2017-12-11T13:26:56.705Z,7.80
2017-12-11T13:29:25.673Z,7.90
2017-12-11T13:31:53.851Z,7.90
2017-12-11T13:34:22.042Z,8.00
2017-12-11T13:36:50.177Z,8.10
2017-12-11T13:39:19.108Z,8.10
2017-12-11T13:41:47.270Z,8.00
2017-12-11T13:44:15.394Z,8.10
2017-12-11T13:46:43.706Z,8.10
2017-12-11T13:49:12.172Z,8.10
2017-12-11T13:51:41.127Z,8.20
2017-12-11T13:54:09.268Z,8.20
2017-12-11T13:56:37.424Z,8.20
2017-12-11T13:59:05.565Z,8.30
2017-12-11T14:01:33.720Z,8.30
2017-12-11T14:04:01.865Z,8.40
2017-12-11T14:06:30.118Z,8.40
2017-12-11T14:08:58.271Z,8.50
2017-12-11T14:11:27.845Z,8.50
2017-12-11T14:13:56.084Z,8.50
2017-12-11T14:16:24.262Z,8.40
2017-12-11T14:18:52.411Z,8.50
2017-12-11T14:21:21.581Z,8.30
2017-12-11T14:23:49.722Z,8.30
2017-12-11T14:26:18.987Z,8.20
2017-12-11T14:28:47.148Z,8.20
2017-12-11T14:31:16.092Z,8.10
2017-12-11T14:33:44.261Z,8.00
2017-12-11T14:36:13.532Z,8.10
2017-12-11T14:38:41.686Z,8.10
2017-12-11T14:41:10.594Z,7.90
2017-12-11T14:43:38.755Z,7.90
2017-12-11T14:46:07.048Z,7.90
2017-12-11T14:48:35.196Z,7.70
2017-12-11T14:51:03.636Z,7.50
2017-12-11T14:53:31.797Z,7.50
2017-12-11T14:55:59.970Z,7.30
2017-12-11T14:58:28.703Z,7.30
2017-12-11T15:00:56.838Z,7.30
2017-12-11T15:03:24.984Z,7.20
2017-12-11T15:05:55.870Z,7.20
2017-12-11T15:08:24.031Z,7.20
2017-12-11T15:10:52.178Z,7.30
2017-12-11T15:13:20.321Z,7.30
2017-12-11T15:15:48.603Z,7.30
2017-12-11T15:18:16.771Z,7.30
2017-12-11T15:20:44.928Z,7.30
2017-12-11T15:23:13.089Z,7.30
2017-12-11T15:25:41.236Z,7.30
2017-12-11T15:28:09.384Z,7.30
2017-12-11T15:30:37.529Z,7.30
2017-12-11T15:33:05.690Z,7.30
2017-12-11T15:35:34.717Z,7.30
2017-12-11T15:38:02.864Z,7.30
2017-12-11T15:46:38.319Z,7.30
2017-12-11T15:49:06.515Z,7.20
2017-12-11T15:51:34.641Z,7.20
2017-12-11T15:54:02.810Z,7.10
2017-12-11T15:56:31.006Z,7.10
2017-12-11T15:58:59.912Z,7.10
2017-12-11T16:01:28.073Z,7.10
2017-12-11T16:03:56.213Z,7.00
2017-12-11T16:06:24.388Z,7.00
2017-12-11T16:08:53.309Z,7.00
2017-12-11T16:11:21.444Z,7.00
2017-12-11T16:13:49.982Z,7.00
2017-12-11T16:16:18.237Z,7.00
2017-12-11T16:18:46.436Z,7.00
2017-12-11T16:21:14.598Z,7.10
2017-12-11T16:23:42.737Z,7.10
2017-12-11T16:26:10.924Z,7.00
2017-12-11T16:28:39.840Z,7.10
2017-12-11T16:31:08.003Z,7.00
2017-12-11T16:33:36.971Z,7.10
2017-12-11T16:36:05.117Z,7.00
2017-12-11T16:38:33.268Z,7.00
2017-12-11T16:41:02.010Z,7.00
2017-12-11T16:43:30.172Z,7.00
2017-12-11T16:45:59.247Z,7.00
2017-12-11T16:48:27.589Z,6.90
2017-12-11T16:50:55.739Z,6.80
2017-12-11T16:53:23.890Z,6.80
2017-12-11T16:55:52.087Z,6.70
2017-12-11T16:58:20.226Z,6.70
2017-12-11T17:00:48.427Z,6.70
2017-12-11T17:03:16.593Z,6.70
2017-12-11T17:05:47.459Z,6.60
2017-12-11T17:08:15.594Z,6.60
2017-12-11T17:10:43.745Z,6.60
2017-12-11T17:13:11.922Z,6.60
2017-12-11T17:15:41.396Z,6.50
2017-12-11T17:18:09.551Z,6.50
2017-12-11T17:20:40.028Z,6.50
2017-12-11T17:23:08.194Z,6.50
2017-12-11T17:25:38.893Z,6.50
2017-12-11T17:28:07.796Z,6.60
2017-12-11T17:30:39.536Z,6.40
2017-12-11T17:33:08.123Z,6.40
2017-12-11T17:35:39.333Z,6.40
2017-12-11T17:38:07.473Z,6.40
2017-12-11T17:40:37.991Z,6.30
2017-12-11T17:43:06.138Z,6.30
2017-12-11T17:45:37.621Z,6.30
2017-12-11T17:48:05.758Z,6.30
2017-12-11T17:50:36.040Z,6.40
2017-12-11T17:53:04.185Z,6.30
2017-12-11T17:55:33.920Z,6.30
2017-12-11T17:58:02.078Z,6.30
2017-12-11T18:00:30.243Z,6.30
2017-12-11T18:02:58.377Z,6.30
2017-12-11T18:05:28.736Z,6.30
2017-12-11T18:07:56.869Z,6.30
2017-12-11T18:10:25.025Z,6.30
2017-12-11T18:12:53.175Z,6.20
2017-12-11T18:15:22.026Z,6.20
2017-12-11T18:17:50.174Z,6.20
2017-12-11T18:20:18.328Z,6.10
2017-12-11T18:22:46.477Z,6.10
2017-12-11T18:25:15.515Z,6.20
2017-12-11T18:27:43.664Z,6.10
2017-12-11T18:30:12.429Z,6.10
2017-12-11T18:32:41.470Z,6.00
2017-12-11T18:35:11.196Z,6.00
2017-12-11T18:37:39.390Z,6.00
2017-12-11T18:40:11.041Z,5.90
2017-12-11T18:42:39.222Z,5.90
2017-12-11T18:45:13.400Z,5.90
2017-12-11T18:47:46.158Z,6.00
2017-12-11T18:50:15.378Z,5.90
2017-12-11T18:52:43.509Z,5.90
2017-12-11T18:55:15.102Z,6.00
2017-12-11T18:57:50.260Z,5.90
2017-12-11T19:00:23.346Z,5.90
2017-12-11T19:02:51.490Z,5.90
2017-12-11T19:05:20.337Z,5.90
2017-12-11T19:07:48.487Z,5.90
2017-12-11T19:10:17.413Z,5.80
2017-12-11T19:12:45.586Z,5.80
2017-12-11T19:15:13.798Z,5.80
2017-12-11T19:17:43.962Z,5.80
2017-12-11T19:20:12.752Z,5.90
2017-12-11T19:22:41.918Z,5.80
2017-12-11T19:25:12.972Z,5.80
2017-12-11T19:27:41.168Z,5.80
2017-12-11T19:30:09.326Z,5.80
2017-12-11T19:32:38.286Z,5.80
2017-12-11T19:35:10.626Z,5.80
2017-12-11T19:37:38.809Z,5.90
2017-12-11T19:40:06.960Z,5.90
2017-12-11T19:42:35.129Z,5.90
2017-12-11T19:45:03.571Z,5.90
2017-12-11T19:47:32.041Z,5.90
2017-12-11T19:50:00.195Z,6.00
2017-12-11T19:52:28.385Z,6.00
2017-12-11T19:54:56.589Z,6.00
2017-12-11T19:57:24.809Z,6.00
2017-12-11T19:59:53.064Z,6.00
2017-12-11T20:02:22.442Z,6.00
2017-12-11T20:04:50.595Z,6.00
2017-12-11T20:07:18.782Z,6.00
2017-12-11T20:09:47.693Z,6.10
2017-12-11T20:12:16.613Z,6.10
2017-12-11T20:14:46.594Z,6.10
2017-12-11T20:17:15.678Z,6.10
2017-12-11T20:19:44.110Z,6.20
2017-12-11T20:22:12.778Z,6.20
2017-12-11T20:24:43.275Z,6.20
2017-12-11T20:27:11.492Z,6.30
2017-12-11T20:29:39.693Z,6.30
2017-12-11T20:32:07.851Z,6.30
2017-12-11T20:34:36.018Z,6.30
2017-12-11T20:37:04.183Z,6.20
2017-12-11T20:39:32.340Z,6.20
2017-12-11T20:42:01.645Z,6.20
2017-12-11T20:44:30.552Z,6.20
2017-12-11T20:46:59.537Z,6.10
2017-12-11T20:49:27.684Z,6.20
2017-12-11T20:51:58.416Z,6.20
2017-12-11T20:54:29.159Z,6.10
2017-12-11T20:56:58.448Z,6.10
2017-12-11T20:59:28.485Z,6.20
2017-12-11T21:01:57.724Z,6.10
2017-12-11T21:04:26.201Z,6.20
2017-12-11T21:06:55.025Z,6.20
2017-12-11T21:09:23.500Z,6.20
2017-12-11T21:11:52.067Z,6.20
2017-12-11T21:14:21.293Z,6.20
2017-12-11T21:16:53.039Z,6.10
2017-12-11T21:19:22.342Z,6.20
2017-12-11T21:21:50.813Z,6.20
2017-12-11T21:24:20.064Z,6.30
2017-12-11T21:26:48.617Z,6.20
2017-12-11T21:29:17.093Z,6.20
2017-12-11T21:31:45.564Z,6.20
2017-12-11T21:34:14.806Z,6.30
2017-12-11T21:36:43.343Z,6.30
2017-12-11T21:39:13.224Z,6.30
2017-12-11T21:41:41.703Z,6.30
2017-12-11T21:44:11.143Z,6.30
2017-12-11T21:46:40.391Z,6.30
2017-12-11T21:49:08.885Z,6.30
2017-12-11T21:51:37.340Z,6.30
2017-12-11T21:54:05.609Z,6.30
2017-12-11T21:56:33.791Z,6.40
2017-12-11T21:59:03.105Z,6.40
2017-12-11T22:01:31.253Z,6.40
2017-12-11T22:03:59.490Z,6.40
2017-12-11T22:06:27.741Z,6.40
2017-12-11T22:08:55.952Z,6.40
2017-12-11T22:11:24.098Z,6.40
2017-12-11T22:13:52.242Z,6.40
2017-12-11T22:16:21.309Z,6.40
2017-12-11T22:18:49.446Z,6.40
2017-12-11T22:21:18.269Z,6.40
2017-12-11T22:23:46.416Z,6.40
2017-12-11T22:26:14.578Z,6.40
2017-12-11T22:28:42.736Z,6.40
2017-12-11T22:31:10.884Z,6.40
2017-12-11T22:33:39.798Z,6.40
2017-12-11T22:36:11.350Z,6.40
2017-12-11T22:38:39.631Z,6.40
2017-12-11T22:41:11.308Z,6.40
2017-12-11T22:43:39.489Z,6.40
2017-12-11T22:46:08.404Z,6.40
2017-12-11T22:48:37.724Z,6.40
2017-12-11T22:51:05.930Z,6.40
2017-12-11T22:53:34.176Z,6.50
2017-12-11T22:56:04.188Z,6.50
2017-12-11T22:58:32.563Z,6.40
